Главная страница
METAR-TAF:

METAR-TAF

Аэропорты :

Киль, Германия

широта: 54-23N, долгота: 010-10E, высота над уровнем моря: 31 м

Текущие метеонаблюдения

Эта сводка был подготовлена 32 минут назад, в 13:50 UTC
Ветер 8 Узел от северо-восточный
Температура 24°C
Влажность 57%
Давление 1020 hPa
Видимость 10 км и более
Нет облачности ниже 1500 м, и нет кучево-дождевой облачности

METAR: EDHK 091350Z 05008KT CAVOK 24/15 Q1020

Время: 16:22 (14:22 UTC)

Прогноз

Эта сводка был подготовлена 3 часа и 22 минут назад, в 11:00 UTC
Прогноз действительный с 09-го 12 UTC до 09-го 19 UTC
Ветер 8 Узел от северо-восточный
Видимость 10 км и более
Нет облачности ниже 1500 м, и нет кучево-дождевой облачности

TAF: EDHK 091100Z 0912/0919 05008KT CAVOK

Метеонаблюдения и прогнозы для более 4000 аэропортов (сводки METAR и TAF).

Имеющиеся станции представлены на карте желтыми и красными точками.

Чтобы увидеть название станции, наведите на нее мышь.

Затем щелкните, чтобы увидеть метеонаблюдения и метеопрогнозы.

Управление картой: чтобы увеличить масштаб, щелкните зеленые кнопки с черным крестиком; чтобы уменьшить масштаб, щелкните зеленую кнопку с тире; для просмотра соседних карт щелкайте зеленые стрелки.


METAR-TAF: